sensor_id;sensor_type;location;lat;lon;timestamp;temperature;humidity
16412;DHT22;8315;52.104;6.304;2022-09-20T00:00:14;10.30;98.40
16412;DHT22;8315;52.104;6.304;2022-09-20T00:02:41;10.40;98.40
16412;DHT22;8315;52.104;6.304;2022-09-20T00:05:08;10.40;98.40
16412;DHT22;8315;52.104;6.304;2022-09-20T00:07:34;10.40;98.40
16412;DHT22;8315;52.104;6.304;2022-09-20T00:10:01;10.40;98.40
16412;DHT22;8315;52.104;6.304;2022-09-20T00:12:28;10.30;98.40
16412;DHT22;8315;52.104;6.304;2022-09-20T00:14:57;10.40;98.40
16412;DHT22;8315;52.104;6.304;2022-09-20T00:17:23;10.40;98.40
16412;DHT22;8315;52.104;6.304;2022-09-20T00:19:50;10.50;98.40
16412;DHT22;8315;52.104;6.304;2022-09-20T00:22:17;10.50;98.40
16412;DHT22;8315;52.104;6.304;2022-09-20T00:24:44;10.50;98.40
16412;DHT22;8315;52.104;6.304;2022-09-20T00:27:11;10.50;98.40
16412;DHT22;8315;52.104;6.304;2022-09-20T00:29:38;10.50;98.40
16412;DHT22;8315;52.104;6.304;2022-09-20T00:32:06;10.40;98.40
16412;DHT22;8315;52.104;6.304;2022-09-20T00:34:33;10.40;98.40
16412;DHT22;8315;52.104;6.304;2022-09-20T00:37:17;10.50;98.40
16412;DHT22;8315;52.104;6.304;2022-09-20T00:39:44;10.40;98.40
16412;DHT22;8315;52.104;6.304;2022-09-20T00:42:11;10.40;98.40
16412;DHT22;8315;52.104;6.304;2022-09-20T00:44:43;10.40;98.40
16412;DHT22;8315;52.104;6.304;2022-09-20T00:47:18;10.40;98.40
16412;DHT22;8315;52.104;6.304;2022-09-20T00:49:48;10.40;98.40
16412;DHT22;8315;52.104;6.304;2022-09-20T00:52:15;10.40;98.40
16412;DHT22;8315;52.104;6.304;2022-09-20T00:54:42;10.40;98.40
16412;DHT22;8315;52.104;6.304;2022-09-20T00:57:09;10.40;98.40
16412;DHT22;8315;52.104;6.304;2022-09-20T00:59:37;10.40;98.40
16412;DHT22;8315;52.104;6.304;2022-09-20T01:02:07;10.30;98.40
16412;DHT22;8315;52.104;6.304;2022-09-20T01:04:39;10.30;98.40
16412;DHT22;8315;52.104;6.304;2022-09-20T01:07:08;10.40;98.40
16412;DHT22;8315;52.104;6.304;2022-09-20T01:09:35;10.40;98.40
16412;DHT22;8315;52.104;6.304;2022-09-20T01:12:03;10.50;98.40
16412;DHT22;8315;52.104;6.304;2022-09-20T01:14:32;10.50;98.40
16412;DHT22;8315;52.104;6.304;2022-09-20T01:17:01;10.40;98.40
16412;DHT22;8315;52.104;6.304;2022-09-20T01:19:30;10.40;98.40
16412;DHT22;8315;52.104;6.304;2022-09-20T01:22:08;10.40;98.40
16412;DHT22;8315;52.104;6.304;2022-09-20T01:24:40;10.40;98.40
16412;DHT22;8315;52.104;6.304;2022-09-20T01:27:12;10.40;98.40
16412;DHT22;8315;52.104;6.304;2022-09-20T01:29:55;10.40;98.40
16412;DHT22;8315;52.104;6.304;2022-09-20T01:32:29;10.40;98.40
16412;DHT22;8315;52.104;6.304;2022-09-20T01:35:02;10.50;98.40
16412;DHT22;8315;52.104;6.304;2022-09-20T01:37:31;10.50;98.40
16412;DHT22;8315;52.104;6.304;2022-09-20T01:40:05;10.50;98.40
16412;DHT22;8315;52.104;6.304;2022-09-20T01:42:36;10.50;98.40
16412;DHT22;8315;52.104;6.304;2022-09-20T01:45:07;10.50;98.40
16412;DHT22;8315;52.104;6.304;2022-09-20T01:47:37;10.50;98.40
16412;DHT22;8315;52.104;6.304;2022-09-20T01:50:10;10.50;98.40
16412;DHT22;8315;52.104;6.304;2022-09-20T01:55:50;10.50;98.40
16412;DHT22;8315;52.104;6.304;2022-09-20T02:01:38;10.40;98.40
16412;DHT22;8315;52.104;6.304;2022-09-20T02:07:56;10.40;98.40
16412;DHT22;8315;52.104;6.304;2022-09-20T02:13:35;10.50;98.40
16412;DHT22;8315;52.104;6.304;2022-09-20T02:16:16;10.50;98.40
16412;DHT22;8315;52.104;6.304;2022-09-20T02:18:59;10.50;98.40
16412;DHT22;8315;52.104;6.304;2022-09-20T02:21:35;10.50;98.40
16412;DHT22;8315;52.104;6.304;2022-09-20T02:24:07;10.50;98.40
16412;DHT22;8315;52.104;6.304;2022-09-20T02:26:46;10.50;98.40
16412;DHT22;8315;52.104;6.304;2022-09-20T02:29:21;10.60;98.40
16412;DHT22;8315;52.104;6.304;2022-09-20T02:31:59;10.60;98.40
16412;DHT22;8315;52.104;6.304;2022-09-20T02:34:38;10.60;98.40
16412;DHT22;8315;52.104;6.304;2022-09-20T02:37:29;10.60;98.40
16412;DHT22;8315;52.104;6.304;2022-09-20T02:40:07;10.60;98.40
16412;DHT22;8315;52.104;6.304;2022-09-20T02:42:45;10.50;98.40
16412;DHT22;8315;52.104;6.304;2022-09-20T02:45:17;10.50;98.40
16412;DHT22;8315;52.104;6.304;2022-09-20T02:47:49;10.60;98.40
16412;DHT22;8315;52.104;6.304;2022-09-20T02:50:21;10.60;98.40
16412;DHT22;8315;52.104;6.304;2022-09-20T02:52:58;10.60;98.40
16412;DHT22;8315;52.104;6.304;2022-09-20T02:55:31;10.60;98.40
16412;DHT22;8315;52.104;6.304;2022-09-20T02:58:10;10.70;98.40
16412;DHT22;8315;52.104;6.304;2022-09-20T03:00:51;10.70;98.40
16412;DHT22;8315;52.104;6.304;2022-09-20T03:03:23;10.70;98.40
16412;DHT22;8315;52.104;6.304;2022-09-20T03:06:03;10.70;98.40
16412;DHT22;8315;52.104;6.304;2022-09-20T03:08:33;10.60;98.40
16412;DHT22;8315;52.104;6.304;2022-09-20T03:11:08;10.60;98.40
16412;DHT22;8315;52.104;6.304;2022-09-20T03:13:45;10.60;98.40
16412;DHT22;8315;52.104;6.304;2022-09-20T03:16:30;10.60;98.40
16412;DHT22;8315;52.104;6.304;2022-09-20T03:19:03;10.70;98.40
16412;DHT22;8315;52.104;6.304;2022-09-20T03:21:40;10.60;98.40
16412;DHT22;8315;52.104;6.304;2022-09-20T03:24:15;10.60;98.40
16412;DHT22;8315;52.104;6.304;2022-09-20T03:26:50;10.70;98.40
16412;DHT22;8315;52.104;6.304;2022-09-20T03:29:24;10.70;98.40
16412;DHT22;8315;52.104;6.304;2022-09-20T03:32:00;10.80;98.40
16412;DHT22;8315;52.104;6.304;2022-09-20T03:34:39;10.90;98.40
16412;DHT22;8315;52.104;6.304;2022-09-20T03:37:21;10.90;98.40
16412;DHT22;8315;52.104;6.304;2022-09-20T03:40:10;10.90;98.40
16412;DHT22;8315;52.104;6.304;2022-09-20T03:42:45;10.90;98.40
16412;DHT22;8315;52.104;6.304;2022-09-20T03:45:25;10.90;98.40
16412;DHT22;8315;52.104;6.304;2022-09-20T03:50:59;10.90;98.40
16412;DHT22;8315;52.104;6.304;2022-09-20T03:56:24;10.90;98.40
16412;DHT22;8315;52.104;6.304;2022-09-20T03:59:09;10.90;98.40
16412;DHT22;8315;52.104;6.304;2022-09-20T04:01:52;10.90;98.40
16412;DHT22;8315;52.104;6.304;2022-09-20T04:04:26;10.80;98.40
16412;DHT22;8315;52.104;6.304;2022-09-20T04:07:00;10.80;98.40
16412;DHT22;8315;52.104;6.304;2022-09-20T04:12:27;10.60;98.40
16412;DHT22;8315;52.104;6.304;2022-09-20T04:15:00;10.60;98.40
16412;DHT22;8315;52.104;6.304;2022-09-20T04:17:36;10.60;98.40
16412;DHT22;8315;52.104;6.304;2022-09-20T04:20:12;10.50;98.40
16412;DHT22;8315;52.104;6.304;2022-09-20T04:22:42;10.50;98.40
16412;DHT22;8315;52.104;6.304;2022-09-20T04:25:13;10.40;98.40
16412;DHT22;8315;52.104;6.304;2022-09-20T04:27:42;10.50;98.40
16412;DHT22;8315;52.104;6.304;2022-09-20T04:30:15;10.60;98.40
16412;DHT22;8315;52.104;6.304;2022-09-20T04:32:45;10.60;98.40
16412;DHT22;8315;52.104;6.304;2022-09-20T04:35:17;10.60;98.40
16412;DHT22;8315;52.104;6.304;2022-09-20T04:38:08;10.70;98.40
16412;DHT22;8315;52.104;6.304;2022-09-20T04:40:44;10.70;98.40
16412;DHT22;8315;52.104;6.304;2022-09-20T04:43:27;10.80;98.40
16412;DHT22;8315;52.104;6.304;2022-09-20T04:46:26;10.70;98.40
16412;DHT22;8315;52.104;6.304;2022-09-20T04:49:15;10.70;98.40
16412;DHT22;8315;52.104;6.304;2022-09-20T04:52:24;10.60;98.40
16412;DHT22;8315;52.104;6.304;2022-09-20T04:58:36;10.60;98.40
16412;DHT22;8315;52.104;6.304;2022-09-20T05:01:12;10.60;98.40
16412;DHT22;8315;52.104;6.304;2022-09-20T05:03:58;10.60;98.40
16412;DHT22;8315;52.104;6.304;2022-09-20T05:06:45;10.70;98.40
16412;DHT22;8315;52.104;6.304;2022-09-20T05:15:22;10.70;98.40
16412;DHT22;8315;52.104;6.304;2022-09-20T05:18:01;10.80;98.40
16412;DHT22;8315;52.104;6.304;2022-09-20T05:20:41;10.80;98.40
16412;DHT22;8315;52.104;6.304;2022-09-20T05:23:22;10.70;98.40
16412;DHT22;8315;52.104;6.304;2022-09-20T05:26:05;10.70;98.40
16412;DHT22;8315;52.104;6.304;2022-09-20T05:28:38;10.80;98.40
16412;DHT22;8315;52.104;6.304;2022-09-20T05:31:12;10.80;98.40
16412;DHT22;8315;52.104;6.304;2022-09-20T05:33:43;10.80;98.40
16412;DHT22;8315;52.104;6.304;2022-09-20T05:36:16;10.80;98.40
16412;DHT22;8315;52.104;6.304;2022-09-20T05:38:46;10.80;98.40
16412;DHT22;8315;52.104;6.304;2022-09-20T05:41:16;10.80;98.40
16412;DHT22;8315;52.104;6.304;2022-09-20T05:43:53;10.80;98.40
16412;DHT22;8315;52.104;6.304;2022-09-20T05:46:31;10.90;98.40
16412;DHT22;8315;52.104;6.304;2022-09-20T05:49:02;10.90;98.40
16412;DHT22;8315;52.104;6.304;2022-09-20T05:51:40;10.90;98.40
16412;DHT22;8315;52.104;6.304;2022-09-20T05:57:10;11.00;98.40
16412;DHT22;8315;52.104;6.304;2022-09-20T05:59:46;11.00;98.40
16412;DHT22;8315;52.104;6.304;2022-09-20T06:02:29;11.00;98.40
16412;DHT22;8315;52.104;6.304;2022-09-20T06:05:02;11.10;98.40
16412;DHT22;8315;52.104;6.304;2022-09-20T06:07:39;11.10;98.40
16412;DHT22;8315;52.104;6.304;2022-09-20T06:10:30;11.10;98.40
16412;DHT22;8315;52.104;6.304;2022-09-20T06:13:07;11.10;98.40
16412;DHT22;8315;52.104;6.304;2022-09-20T06:15:48;11.10;98.40
16412;DHT22;8315;52.104;6.304;2022-09-20T06:18:21;11.10;98.40
16412;DHT22;8315;52.104;6.304;2022-09-20T06:20:54;11.20;98.40
16412;DHT22;8315;52.104;6.304;2022-09-20T06:23:25;11.20;98.40
16412;DHT22;8315;52.104;6.304;2022-09-20T06:25:53;11.20;98.40
16412;DHT22;8315;52.104;6.304;2022-09-20T06:28:22;11.30;98.40
16412;DHT22;8315;52.104;6.304;2022-09-20T06:30:52;11.40;98.40
16412;DHT22;8315;52.104;6.304;2022-09-20T06:33:22;11.40;98.40
16412;DHT22;8315;52.104;6.304;2022-09-20T06:35:51;11.40;98.40
16412;DHT22;8315;52.104;6.304;2022-09-20T06:38:24;11.40;98.40
16412;DHT22;8315;52.104;6.304;2022-09-20T06:41:17;11.30;98.40
16412;DHT22;8315;52.104;6.304;2022-09-20T06:43:56;11.40;98.40
16412;DHT22;8315;52.104;6.304;2022-09-20T06:46:24;11.40;98.40
16412;DHT22;8315;52.104;6.304;2022-09-20T06:48:53;11.40;98.40
16412;DHT22;8315;52.104;6.304;2022-09-20T06:51:20;11.40;98.40
16412;DHT22;8315;52.104;6.304;2022-09-20T06:53:48;11.50;98.40
16412;DHT22;8315;52.104;6.304;2022-09-20T06:56:16;11.50;98.40
16412;DHT22;8315;52.104;6.304;2022-09-20T06:58:44;11.60;98.40
16412;DHT22;8315;52.104;6.304;2022-09-20T07:01:11;11.60;98.40
16412;DHT22;8315;52.104;6.304;2022-09-20T07:03:38;11.60;98.40
16412;DHT22;8315;52.104;6.304;2022-09-20T07:06:06;11.60;98.40
16412;DHT22;8315;52.104;6.304;2022-09-20T07:08:34;11.70;98.40
16412;DHT22;8315;52.104;6.304;2022-09-20T07:11:04;11.70;98.40
16412;DHT22;8315;52.104;6.304;2022-09-20T07:13:33;11.80;98.40
16412;DHT22;8315;52.104;6.304;2022-09-20T07:16:00;11.80;98.40
16412;DHT22;8315;52.104;6.304;2022-09-20T07:18:28;11.90;98.40
16412;DHT22;8315;52.104;6.304;2022-09-20T07:20:55;11.90;98.40
16412;DHT22;8315;52.104;6.304;2022-09-20T07:23:24;12.00;98.40
16412;DHT22;8315;52.104;6.304;2022-09-20T07:25:51;12.10;98.40
16412;DHT22;8315;52.104;6.304;2022-09-20T07:28:18;12.10;98.40
16412;DHT22;8315;52.104;6.304;2022-09-20T07:30:46;12.20;98.40
16412;DHT22;8315;52.104;6.304;2022-09-20T07:33:12;12.20;98.40
16412;DHT22;8315;52.104;6.304;2022-09-20T07:35:44;12.30;98.40
16412;DHT22;8315;52.104;6.304;2022-09-20T07:38:11;12.40;98.40
16412;DHT22;8315;52.104;6.304;2022-09-20T07:40:39;12.50;98.40
16412;DHT22;8315;52.104;6.304;2022-09-20T07:43:06;12.60;98.40
16412;DHT22;8315;52.104;6.304;2022-09-20T07:45:34;12.60;98.40
16412;DHT22;8315;52.104;6.304;2022-09-20T07:48:04;12.70;98.40
16412;DHT22;8315;52.104;6.304;2022-09-20T07:50:31;12.80;98.40
16412;DHT22;8315;52.104;6.304;2022-09-20T07:52:58;12.80;98.40
16412;DHT22;8315;52.104;6.304;2022-09-20T07:55:25;12.90;98.40
16412;DHT22;8315;52.104;6.304;2022-09-20T07:57:53;13.00;98.40
16412;DHT22;8315;52.104;6.304;2022-09-20T08:00:20;13.10;98.40
16412;DHT22;8315;52.104;6.304;2022-09-20T08:02:47;13.10;98.40
16412;DHT22;8315;52.104;6.304;2022-09-20T08:05:14;13.30;98.40
16412;DHT22;8315;52.104;6.304;2022-09-20T08:07:41;13.40;98.40
16412;DHT22;8315;52.104;6.304;2022-09-20T08:10:08;13.50;98.40
16412;DHT22;8315;52.104;6.304;2022-09-20T08:12:35;13.50;98.40
16412;DHT22;8315;52.104;6.304;2022-09-20T08:15:04;13.70;98.40
16412;DHT22;8315;52.104;6.304;2022-09-20T08:17:32;13.70;98.40
16412;DHT22;8315;52.104;6.304;2022-09-20T08:19:58;13.80;98.40
16412;DHT22;8315;52.104;6.304;2022-09-20T08:22:25;13.80;98.40
16412;DHT22;8315;52.104;6.304;2022-09-20T08:24:52;13.80;98.40
16412;DHT22;8315;52.104;6.304;2022-09-20T08:27:19;13.90;98.40
16412;DHT22;8315;52.104;6.304;2022-09-20T08:29:45;13.80;98.40
16412;DHT22;8315;52.104;6.304;2022-09-20T08:32:14;13.80;98.40
16412;DHT22;8315;52.104;6.304;2022-09-20T08:34:40;13.70;98.40
16412;DHT22;8315;52.104;6.304;2022-09-20T08:37:07;13.70;98.40
16412;DHT22;8315;52.104;6.304;2022-09-20T08:39:34;13.80;98.40
16412;DHT22;8315;52.104;6.304;2022-09-20T08:42:04;13.80;98.40
16412;DHT22;8315;52.104;6.304;2022-09-20T08:44:39;13.90;98.40
16412;DHT22;8315;52.104;6.304;2022-09-20T08:47:12;13.90;98.40
16412;DHT22;8315;52.104;6.304;2022-09-20T08:49:45;13.90;98.40
16412;DHT22;8315;52.104;6.304;2022-09-20T08:52:14;13.90;98.40
16412;DHT22;8315;52.104;6.304;2022-09-20T08:54:42;14.00;98.40
16412;DHT22;8315;52.104;6.304;2022-09-20T08:57:09;14.00;98.40
16412;DHT22;8315;52.104;6.304;2022-09-20T08:59:39;14.00;98.40
16412;DHT22;8315;52.104;6.304;2022-09-20T09:02:08;14.10;98.40
16412;DHT22;8315;52.104;6.304;2022-09-20T09:04:42;14.10;98.40
16412;DHT22;8315;52.104;6.304;2022-09-20T09:07:10;14.10;98.40
16412;DHT22;8315;52.104;6.304;2022-09-20T09:09:38;14.10;98.40
16412;DHT22;8315;52.104;6.304;2022-09-20T09:12:16;14.10;98.40
16412;DHT22;8315;52.104;6.304;2022-09-20T09:14:46;14.20;98.40
16412;DHT22;8315;52.104;6.304;2022-09-20T09:17:14;14.30;98.40
16412;DHT22;8315;52.104;6.304;2022-09-20T09:19:44;14.40;98.40
16412;DHT22;8315;52.104;6.304;2022-09-20T09:22:20;14.40;98.40
16412;DHT22;8315;52.104;6.304;2022-09-20T09:25:07;14.40;98.40
16412;DHT22;8315;52.104;6.304;2022-09-20T09:27:48;14.50;98.40
16412;DHT22;8315;52.104;6.304;2022-09-20T09:30:18;14.60;98.40
16412;DHT22;8315;52.104;6.304;2022-09-20T09:32:45;14.70;98.40
16412;DHT22;8315;52.104;6.304;2022-09-20T09:35:21;14.70;98.40
16412;DHT22;8315;52.104;6.304;2022-09-20T09:37:55;14.70;98.40
16412;DHT22;8315;52.104;6.304;2022-09-20T09:40:23;14.70;98.40
16412;DHT22;8315;52.104;6.304;2022-09-20T09:42:50;14.70;98.40
16412;DHT22;8315;52.104;6.304;2022-09-20T09:45:26;14.80;98.40
16412;DHT22;8315;52.104;6.304;2022-09-20T09:47:57;14.80;98.40
16412;DHT22;8315;52.104;6.304;2022-09-20T09:50:28;14.90;98.40
16412;DHT22;8315;52.104;6.304;2022-09-20T09:53:00;14.90;98.40
16412;DHT22;8315;52.104;6.304;2022-09-20T09:58:22;15.00;98.40
16412;DHT22;8315;52.104;6.304;2022-09-20T10:00:57;14.90;98.40
16412;DHT22;8315;52.104;6.304;2022-09-20T10:03:41;14.90;98.40
16412;DHT22;8315;52.104;6.304;2022-09-20T10:06:17;14.90;98.40
16412;DHT22;8315;52.104;6.304;2022-09-20T10:08:52;15.10;98.40
16412;DHT22;8315;52.104;6.304;2022-09-20T10:11:27;15.20;98.40
16412;DHT22;8315;52.104;6.304;2022-09-20T10:14:01;15.30;98.40
16412;DHT22;8315;52.104;6.304;2022-09-20T10:16:37;15.30;98.40
16412;DHT22;8315;52.104;6.304;2022-09-20T10:19:16;15.40;98.40
16412;DHT22;8315;52.104;6.304;2022-09-20T10:21:51;15.50;98.40
16412;DHT22;8315;52.104;6.304;2022-09-20T10:24:27;15.50;98.40
16412;DHT22;8315;52.104;6.304;2022-09-20T10:27:01;15.40;98.40
16412;DHT22;8315;52.104;6.304;2022-09-20T10:29:47;15.40;98.40
16412;DHT22;8315;52.104;6.304;2022-09-20T10:32:25;15.30;98.40
16412;DHT22;8315;52.104;6.304;2022-09-20T10:35:02;15.30;98.40
16412;DHT22;8315;52.104;6.304;2022-09-20T10:37:58;15.30;98.40
16412;DHT22;8315;52.104;6.304;2022-09-20T10:40:39;15.30;98.40
16412;DHT22;8315;52.104;6.304;2022-09-20T10:43:33;15.50;98.40
16412;DHT22;8315;52.104;6.304;2022-09-20T10:46:10;15.60;98.40
16412;DHT22;8315;52.104;6.304;2022-09-20T10:48:43;15.70;98.40
16412;DHT22;8315;52.104;6.304;2022-09-20T10:51:14;15.70;98.40
16412;DHT22;8315;52.104;6.304;2022-09-20T10:53:48;15.70;98.40
16412;DHT22;8315;52.104;6.304;2022-09-20T10:56:22;15.60;98.40
16412;DHT22;8315;52.104;6.304;2022-09-20T10:59:03;15.60;98.40
16412;DHT22;8315;52.104;6.304;2022-09-20T11:02:01;15.60;98.40
16412;DHT22;8315;52.104;6.304;2022-09-20T11:07:30;15.70;98.40
16412;DHT22;8315;52.104;6.304;2022-09-20T11:10:12;16.00;98.40
16412;DHT22;8315;52.104;6.304;2022-09-20T11:12:41;16.00;96.10
16412;DHT22;8315;52.104;6.304;2022-09-20T11:15:13;15.90;97.50
16412;DHT22;8315;52.104;6.304;2022-09-20T11:17:43;16.00;97.10
16412;DHT22;8315;52.104;6.304;2022-09-20T11:20:21;16.00;97.30
16412;DHT22;8315;52.104;6.304;2022-09-20T11:22:51;16.00;97.60
16412;DHT22;8315;52.104;6.304;2022-09-20T11:25:23;16.00;97.90
16412;DHT22;8315;52.104;6.304;2022-09-20T11:27:57;16.20;98.30
16412;DHT22;8315;52.104;6.304;2022-09-20T11:30:27;16.10;97.20
16412;DHT22;8315;52.104;6.304;2022-09-20T11:32:57;16.10;95.00
16412;DHT22;8315;52.104;6.304;2022-09-20T11:35:27;16.00;94.90
16412;DHT22;8315;52.104;6.304;2022-09-20T11:37:57;16.00;94.60
16412;DHT22;8315;52.104;6.304;2022-09-20T11:40:30;15.90;94.60
16412;DHT22;8315;52.104;6.304;2022-09-20T11:42:59;15.80;95.50
16412;DHT22;8315;52.104;6.304;2022-09-20T11:45:28;15.80;96.00
16412;DHT22;8315;52.104;6.304;2022-09-20T11:47:56;15.80;96.40
16412;DHT22;8315;52.104;6.304;2022-09-20T11:53:15;15.80;97.10
16412;DHT22;8315;52.104;6.304;2022-09-20T11:55:52;15.70;97.00
16412;DHT22;8315;52.104;6.304;2022-09-20T11:58:23;15.70;96.10
16412;DHT22;8315;52.104;6.304;2022-09-20T12:00:52;15.70;96.90
16412;DHT22;8315;52.104;6.304;2022-09-20T12:03:23;15.70;96.20
16412;DHT22;8315;52.104;6.304;2022-09-20T12:05:56;15.80;95.80
16412;DHT22;8315;52.104;6.304;2022-09-20T12:08:25;15.80;96.10
16412;DHT22;8315;52.104;6.304;2022-09-20T12:10:56;15.90;96.70
16412;DHT22;8315;52.104;6.304;2022-09-20T12:13:25;16.00;96.50
16412;DHT22;8315;52.104;6.304;2022-09-20T12:15:57;16.00;96.70
16412;DHT22;8315;52.104;6.304;2022-09-20T12:18:26;16.00;95.80
16412;DHT22;8315;52.104;6.304;2022-09-20T12:21:19;16.00;96.60
16412;DHT22;8315;52.104;6.304;2022-09-20T12:26:52;16.00;95.70
16412;DHT22;8315;52.104;6.304;2022-09-20T12:32:44;16.00;95.80
16412;DHT22;8315;52.104;6.304;2022-09-20T12:38:23;16.10;96.80
16412;DHT22;8315;52.104;6.304;2022-09-20T12:41:10;16.00;96.60
16412;DHT22;8315;52.104;6.304;2022-09-20T12:43:48;15.90;97.30
16412;DHT22;8315;52.104;6.304;2022-09-20T12:46:23;16.00;98.10
16412;DHT22;8315;52.104;6.304;2022-09-20T12:49:18;16.00;97.50
16412;DHT22;8315;52.104;6.304;2022-09-20T12:52:01;16.00;97.60
16412;DHT22;8315;52.104;6.304;2022-09-20T12:54:49;16.10;98.40
16412;DHT22;8315;52.104;6.304;2022-09-20T12:57:17;16.10;97.50
16412;DHT22;8315;52.104;6.304;2022-09-20T12:59:55;16.10;96.80
16412;DHT22;8315;52.104;6.304;2022-09-20T13:02:53;16.20;95.20
16412;DHT22;8315;52.104;6.304;2022-09-20T13:05:33;16.20;94.10
16412;DHT22;8315;52.104;6.304;2022-09-20T13:08:04;16.30;94.10
16412;DHT22;8315;52.104;6.304;2022-09-20T13:10:38;16.50;94.00
16412;DHT22;8315;52.104;6.304;2022-09-20T13:13:11;16.70;93.90
16412;DHT22;8315;52.104;6.304;2022-09-20T13:15:47;16.90;95.30
16412;DHT22;8315;52.104;6.304;2022-09-20T13:18:14;17.00;93.10
16412;DHT22;8315;52.104;6.304;2022-09-20T13:20:42;17.00;92.00
16412;DHT22;8315;52.104;6.304;2022-09-20T13:23:14;16.90;91.60
16412;DHT22;8315;52.104;6.304;2022-09-20T13:25:44;16.80;92.70
16412;DHT22;8315;52.104;6.304;2022-09-20T13:28:19;16.80;91.90
16412;DHT22;8315;52.104;6.304;2022-09-20T13:36:38;16.70;91.60
16412;DHT22;8315;52.104;6.304;2022-09-20T13:39:04;16.80;92.40
16412;DHT22;8315;52.104;6.304;2022-09-20T13:41:32;17.00;90.60
16412;DHT22;8315;52.104;6.304;2022-09-20T13:44:00;17.10;90.80
16412;DHT22;8315;52.104;6.304;2022-09-20T13:46:29;17.20;92.10
16412;DHT22;8315;52.104;6.304;2022-09-20T13:48:58;17.20;92.10
16412;DHT22;8315;52.104;6.304;2022-09-20T13:51:35;17.20;92.40
16412;DHT22;8315;52.104;6.304;2022-09-20T13:54:24;17.00;91.80
16412;DHT22;8315;52.104;6.304;2022-09-20T13:56:52;16.90;92.70
16412;DHT22;8315;52.104;6.304;2022-09-20T13:59:21;16.80;94.00
16412;DHT22;8315;52.104;6.304;2022-09-20T14:01:50;16.80;95.20
16412;DHT22;8315;52.104;6.304;2022-09-20T14:04:19;16.80;95.00
16412;DHT22;8315;52.104;6.304;2022-09-20T14:06:48;16.70;94.60
16412;DHT22;8315;52.104;6.304;2022-09-20T14:09:17;16.60;96.10
16412;DHT22;8315;52.104;6.304;2022-09-20T14:11:47;16.60;96.50
16412;DHT22;8315;52.104;6.304;2022-09-20T14:14:14;16.60;96.10
16412;DHT22;8315;52.104;6.304;2022-09-20T14:16:41;16.60;96.80
16412;DHT22;8315;52.104;6.304;2022-09-20T14:19:12;16.60;96.00
16412;DHT22;8315;52.104;6.304;2022-09-20T14:21:41;16.60;96.00
16412;DHT22;8315;52.104;6.304;2022-09-20T14:24:21;16.70;97.30
16412;DHT22;8315;52.104;6.304;2022-09-20T14:27:05;16.90;96.00
16412;DHT22;8315;52.104;6.304;2022-09-20T14:29:42;17.30;96.20
16412;DHT22;8315;52.104;6.304;2022-09-20T14:32:17;17.60;93.10
16412;DHT22;8315;52.104;6.304;2022-09-20T14:34:55;17.80;92.90
16412;DHT22;8315;52.104;6.304;2022-09-20T14:37:25;18.10;93.50
16412;DHT22;8315;52.104;6.304;2022-09-20T14:39:54;18.40;91.20
16412;DHT22;8315;52.104;6.304;2022-09-20T14:42:23;18.30;90.00
16412;DHT22;8315;52.104;6.304;2022-09-20T14:44:53;18.30;91.10
16412;DHT22;8315;52.104;6.304;2022-09-20T14:47:27;18.20;90.50
16412;DHT22;8315;52.104;6.304;2022-09-20T14:49:56;18.40;90.20
16412;DHT22;8315;52.104;6.304;2022-09-20T14:52:35;18.80;88.30
16412;DHT22;8315;52.104;6.304;2022-09-20T14:55:19;19.00;87.10
16412;DHT22;8315;52.104;6.304;2022-09-20T14:57:54;19.10;85.10
16412;DHT22;8315;52.104;6.304;2022-09-20T15:00:23;18.90;86.60
16412;DHT22;8315;52.104;6.304;2022-09-20T15:02:50;18.90;87.30
16412;DHT22;8315;52.104;6.304;2022-09-20T15:05:20;18.60;87.10
16412;DHT22;8315;52.104;6.304;2022-09-20T15:07:50;18.50;88.00
16412;DHT22;8315;52.104;6.304;2022-09-20T15:10:18;18.50;88.40
16412;DHT22;8315;52.104;6.304;2022-09-20T15:12:45;18.60;87.80
16412;DHT22;8315;52.104;6.304;2022-09-20T15:15:12;18.50;87.60
16412;DHT22;8315;52.104;6.304;2022-09-20T15:17:41;18.40;88.50
16412;DHT22;8315;52.104;6.304;2022-09-20T15:20:12;18.20;89.00
16412;DHT22;8315;52.104;6.304;2022-09-20T15:22:42;18.10;88.90
16412;DHT22;8315;52.104;6.304;2022-09-20T15:25:13;18.10;89.80
16412;DHT22;8315;52.104;6.304;2022-09-20T15:27:41;18.10;89.50
16412;DHT22;8315;52.104;6.304;2022-09-20T15:30:11;18.10;89.20
16412;DHT22;8315;52.104;6.304;2022-09-20T15:32:40;18.00;90.20
16412;DHT22;8315;52.104;6.304;2022-09-20T15:35:07;17.90;91.00
16412;DHT22;8315;52.104;6.304;2022-09-20T15:37:34;17.90;90.70
16412;DHT22;8315;52.104;6.304;2022-09-20T15:40:03;17.90;90.60
16412;DHT22;8315;52.104;6.304;2022-09-20T15:42:31;18.00;90.40
16412;DHT22;8315;52.104;6.304;2022-09-20T15:45:05;18.00;90.00
16412;DHT22;8315;52.104;6.304;2022-09-20T15:47:34;18.40;90.00
16412;DHT22;8315;52.104;6.304;2022-09-20T15:50:02;18.70;89.50
16412;DHT22;8315;52.104;6.304;2022-09-20T15:52:34;18.90;89.50
16412;DHT22;8315;52.104;6.304;2022-09-20T15:55:03;19.30;87.80
16412;DHT22;8315;52.104;6.304;2022-09-20T15:57:30;19.40;89.30
16412;DHT22;8315;52.104;6.304;2022-09-20T15:59:58;19.40;87.70
16412;DHT22;8315;52.104;6.304;2022-09-20T16:02:25;19.30;86.60
16412;DHT22;8315;52.104;6.304;2022-09-20T16:04:53;18.70;88.10
16412;DHT22;8315;52.104;6.304;2022-09-20T16:07:20;18.60;88.40
16412;DHT22;8315;52.104;6.304;2022-09-20T16:09:51;18.80;88.50
16412;DHT22;8315;52.104;6.304;2022-09-20T16:12:20;18.90;87.90
16412;DHT22;8315;52.104;6.304;2022-09-20T16:14:47;18.60;87.80
16412;DHT22;8315;52.104;6.304;2022-09-20T16:17:14;18.40;90.00
16412;DHT22;8315;52.104;6.304;2022-09-20T16:19:41;18.40;90.20
16412;DHT22;8315;52.104;6.304;2022-09-20T16:22:08;18.50;90.10
16412;DHT22;8315;52.104;6.304;2022-09-20T16:24:35;18.60;88.40
16412;DHT22;8315;52.104;6.304;2022-09-20T16:27:02;18.70;89.00
16412;DHT22;8315;52.104;6.304;2022-09-20T16:29:32;18.50;88.90
16412;DHT22;8315;52.104;6.304;2022-09-20T16:31:59;18.70;89.80
16412;DHT22;8315;52.104;6.304;2022-09-20T16:34:28;18.90;88.90
16412;DHT22;8315;52.104;6.304;2022-09-20T16:36:56;18.90;87.70
16412;DHT22;8315;52.104;6.304;2022-09-20T16:39:24;19.20;88.40
16412;DHT22;8315;52.104;6.304;2022-09-20T16:41:52;19.30;87.90
16412;DHT22;8315;52.104;6.304;2022-09-20T16:44:21;19.60;87.90
16412;DHT22;8315;52.104;6.304;2022-09-20T16:46:49;19.70;86.70
16412;DHT22;8315;52.104;6.304;2022-09-20T16:49:16;19.60;86.30
16412;DHT22;8315;52.104;6.304;2022-09-20T16:51:43;19.60;85.40
16412;DHT22;8315;52.104;6.304;2022-09-20T16:54:11;19.70;86.30
16412;DHT22;8315;52.104;6.304;2022-09-20T16:56:39;19.60;86.50
16412;DHT22;8315;52.104;6.304;2022-09-20T16:59:06;19.60;84.50
16412;DHT22;8315;52.104;6.304;2022-09-20T17:01:33;19.50;84.90
16412;DHT22;8315;52.104;6.304;2022-09-20T17:04:03;19.60;85.50
16412;DHT22;8315;52.104;6.304;2022-09-20T17:06:31;19.60;85.30
16412;DHT22;8315;52.104;6.304;2022-09-20T17:08:58;19.50;86.30
16412;DHT22;8315;52.104;6.304;2022-09-20T17:11:26;19.30;87.50
16412;DHT22;8315;52.104;6.304;2022-09-20T17:13:54;19.20;87.40
16412;DHT22;8315;52.104;6.304;2022-09-20T17:16:22;19.00;87.90